KSDA

Details ICAO KSDA
Name SHENANDOAH MUNI
Region United States
Timezone America/Chicago (UTC-6.0)
Plans Departing 0
Arriving 2
Stats Elevation 971 ft / 296 m (AMSL)
Location 40.751903° -95.414035°
Runways 2
Magnetic Variation 2.191° E
Sunrise 2017-12-15 13:40:17 UTC / 2017-12-15 07:40:17 Local
Sunset 2017-12-15 22:56:22 UTC / 2017-12-15 16:56:22 Local
Advertisement - Login to hide

Runways

ID Width Length Bearing (true) Bearing (mag) Surface Threshold Offset Overrun Length
04 75 ft / 23 m 4,999 ft / 1,524 m 43.16° 40.97° Concrete 0 ft / 0 m 0 ft / 0 m
12 75 ft / 23 m 3,296 ft / 1,005 m 125.17° 122.98° Concrete 0 ft / 0 m 600 ft / 183 m
22 75 ft / 23 m 4,999 ft / 1,524 m 223.16° 220.97° Concrete 0 ft / 0 m 0 ft / 0 m
30 75 ft / 23 m 3,296 ft / 1,005 m 305.18° 302.99° Concrete 0 ft / 0 m 0 ft / 0 m

Map

Weather


0- 5 10 15 20 25 30 35+ Temperature / ° C

Clouds and Precipitation
Forecast for 2017-12-15 12:00 UTC. Updated an hour ago

Ground ~20,000 ft ~40,000 ft Winds

METAR

KSDA 151215Z AUTO 23006KT 10SM OVC050 M00/M03 A3010 RMK AO2

TAF

Not found

Frequencies

Recorded 125.52 MHz AWOS 3
Approach 124.50 MHz OMAHA APP/DEP
Unicom 122.80 MHz CTAF/UNICOM
Warning: Do not use this data for real-world aviation or navigation. No guarantee of current accuracy is given.